createdAt,value
2018-07-12T00:00:04.005Z,14.67
2018-07-12T00:05:06.182Z,14.50
2018-07-12T00:10:08.362Z,24.47
2018-07-12T00:15:10.541Z,19.00
2018-07-12T00:20:13.008Z,14.17
2018-07-12T00:25:15.177Z,17.50
2018-07-12T00:30:17.931Z,14.33
2018-07-12T00:35:20.427Z,12.00
2018-07-12T00:40:22.672Z,14.13
2018-07-12T00:45:24.841Z,14.30
2018-07-12T00:50:27.057Z,13.70
2018-07-12T00:55:29.356Z,12.30
2018-07-12T01:00:31.540Z,14.20
2018-07-12T01:05:33.728Z,13.60
2018-07-12T01:10:35.928Z,11.67
2018-07-12T01:15:38.291Z,12.93
2018-07-12T01:20:40.533Z,13.20
2018-07-12T01:25:42.706Z,12.70
2018-07-12T01:30:44.894Z,18.00
2018-07-12T01:35:48.109Z,40.23
2018-07-12T01:40:50.431Z,15.13
2018-07-12T01:45:52.624Z,35.90
2018-07-12T01:50:54.799Z,25.20
2018-07-12T01:55:56.988Z,22.10
2018-07-12T02:00:59.171Z,16.80
2018-07-12T02:06:01.521Z,15.47
2018-07-12T02:11:03.684Z,29.23
2018-07-12T02:16:05.898Z,21.07
2018-07-12T02:21:08.152Z,14.80
2018-07-12T02:26:10.404Z,16.00
2018-07-12T02:31:12.667Z,23.97
2018-07-12T02:36:14.805Z,14.07
2018-07-12T02:41:17.002Z,17.30
2018-07-12T02:46:19.200Z,21.63
2018-07-12T02:51:21.527Z,12.90
2018-07-12T02:56:23.700Z,21.60
2018-07-12T03:01:25.857Z,13.20
2018-07-12T03:06:28.112Z,12.80
2018-07-12T03:11:30.573Z,21.30
2018-07-12T03:16:32.968Z,11.67
2018-07-12T03:21:35.157Z,41.30
2018-07-12T03:26:37.359Z,13.10
2018-07-12T03:31:39.534Z,11.53
2018-07-12T03:36:41.710Z,12.17
2018-07-12T03:41:43.909Z,15.10
2018-07-12T03:46:46.089Z,9.90
2018-07-12T03:51:48.277Z,11.23
2018-07-12T03:56:50.463Z,13.33
2018-07-12T04:01:52.706Z,17.13
2018-07-12T04:06:55.164Z,12.03
2018-07-12T04:11:57.352Z,14.53
2018-07-12T04:16:59.533Z,12.53
2018-07-12T04:22:01.785Z,16.77
2018-07-12T04:27:03.965Z,8.97
2018-07-12T04:32:06.141Z,12.20
2018-07-12T04:37:08.292Z,9.93
2018-07-12T04:42:10.453Z,19.00
2018-07-12T04:47:12.674Z,7.13
2018-07-12T04:52:14.865Z,11.87
2018-07-12T04:57:17.089Z,4.37
2018-07-12T05:02:19.289Z,4.50
2018-07-12T05:07:21.479Z,5.73
2018-07-12T05:12:23.874Z,5.20
2018-07-12T05:17:26.041Z,6.00
2018-07-12T05:22:29.151Z,5.53
2018-07-12T05:27:31.353Z,5.50
2018-07-12T05:32:33.579Z,5.23
2018-07-12T05:37:36.850Z,5.87
2018-07-12T05:42:39.896Z,6.60
2018-07-12T05:47:43.015Z,5.10
2018-07-12T05:52:47.210Z,4.40
2018-07-12T05:57:51.727Z,2.00
2018-07-12T06:02:55.442Z,2.20
2018-07-12T06:07:58.529Z,1.90
2018-07-12T06:13:01.628Z,1.93
2018-07-12T06:18:05.037Z,1.67
2018-07-12T06:23:08.117Z,1.53
2018-07-12T06:28:11.261Z,1.57
2018-07-12T06:33:14.653Z,1.33
2018-07-12T06:38:19.186Z,1.43
2018-07-12T06:43:22.232Z,1.73
2018-07-12T06:48:25.334Z,1.27
2018-07-12T06:53:28.389Z,1.53
2018-07-12T06:58:31.653Z,1.80
2018-07-12T07:03:34.711Z,1.60
2018-07-12T07:08:37.849Z,2.10
2018-07-12T07:13:40.929Z,2.30
2018-07-12T07:18:43.992Z,2.73
2018-07-12T07:23:47.060Z,2.90
2018-07-12T07:28:50.152Z,2.50
2018-07-12T07:33:53.231Z,3.00
2018-07-12T07:38:56.298Z,2.30
2018-07-12T07:43:59.345Z,2.57
2018-07-12T07:49:02.500Z,2.70
2018-07-12T07:54:05.904Z,24.20
2018-07-12T07:59:08.999Z,12.03
2018-07-12T08:04:12.071Z,14.00
2018-07-12T08:09:15.347Z,3.43
2018-07-12T08:14:18.476Z,17.03
2018-07-12T08:19:21.521Z,3.40
2018-07-12T08:24:24.580Z,3.50
2018-07-12T08:29:27.636Z,2.73
2018-07-12T08:34:30.748Z,3.10
2018-07-12T08:39:33.857Z,2.63
2018-07-12T08:44:36.944Z,3.07
2018-07-12T08:49:40.044Z,3.33
2018-07-12T08:54:43.224Z,3.10
2018-07-12T08:59:46.282Z,3.00
2018-07-12T09:04:49.412Z,7.43
2018-07-12T09:09:52.500Z,3.70
2018-07-12T09:14:55.694Z,3.37
2018-07-12T09:19:58.765Z,3.80
2018-07-12T09:25:01.993Z,3.60
2018-07-12T09:30:05.356Z,5.97
2018-07-12T09:35:08.388Z,7.23
2018-07-12T09:40:11.477Z,10.80
2018-07-12T09:45:14.552Z,8.93
2018-07-12T09:50:17.619Z,7.90
2018-07-12T09:55:20.677Z,7.50
2018-07-12T10:00:29.365Z,7.93
2018-07-12T10:06:41.460Z,7.07
2018-07-12T10:11:49.910Z,8.50
2018-07-12T10:16:59.480Z,6.20
2018-07-12T10:22:02.662Z,21.70
2018-07-12T10:27:05.821Z,10.97
2018-07-12T10:32:08.966Z,6.30
2018-07-12T10:37:11.852Z,8.23
2018-07-12T10:42:14.969Z,9.10
2018-07-12T10:47:18.012Z,5.90
2018-07-12T10:52:21.070Z,6.50
2018-07-12T10:57:24.179Z,5.50
2018-07-12T11:02:27.219Z,5.73
2018-07-12T11:07:30.296Z,5.80
2018-07-12T11:12:33.636Z,5.93
2018-07-12T11:17:36.862Z,7.20
2018-07-12T11:22:39.924Z,6.00
2018-07-12T11:27:42.999Z,5.33
2018-07-12T11:32:46.034Z,6.13
2018-07-12T11:37:49.113Z,6.07
2018-07-12T11:43:22.988Z,6.97
2018-07-12T11:48:26.335Z,9.13
2018-07-12T11:53:29.376Z,6.00
2018-07-12T11:58:32.538Z,6.90
2018-07-12T12:03:35.592Z,9.27
2018-07-12T12:08:38.780Z,14.93
2018-07-12T12:13:41.848Z,17.30
2018-07-12T12:18:44.912Z,6.17
2018-07-12T12:23:48.052Z,6.03
2018-07-12T12:28:51.192Z,7.30
2018-07-12T12:33:54.465Z,5.90
2018-07-12T12:38:57.603Z,7.37
2018-07-12T12:44:00.652Z,7.07
2018-07-12T12:49:03.703Z,6.53
2018-07-12T12:54:06.771Z,6.07
2018-07-12T12:59:09.863Z,8.87
2018-07-12T13:04:13.013Z,7.27
2018-07-12T13:09:16.092Z,7.63
2018-07-12T13:14:19.191Z,6.30
2018-07-12T13:19:22.228Z,6.00
2018-07-12T13:24:25.304Z,6.63
2018-07-12T13:29:28.370Z,5.53
2018-07-12T13:34:31.446Z,6.60
2018-07-12T13:39:34.467Z,8.70
2018-07-12T13:44:37.536Z,7.20
2018-07-12T13:49:40.569Z,8.27
2018-07-12T13:54:43.653Z,4.97
2018-07-12T13:59:46.674Z,5.07
2018-07-12T14:04:49.692Z,5.13
2018-07-12T14:09:52.759Z,5.10
2018-07-12T14:14:55.965Z,5.70
2018-07-12T14:19:59.015Z,6.00
2018-07-12T14:25:02.119Z,6.00
2018-07-12T14:30:05.631Z,5.63
2018-07-12T14:35:08.667Z,6.80
2018-07-12T14:40:11.758Z,6.10
2018-07-12T14:45:14.891Z,6.03
2018-07-12T14:50:17.967Z,6.30
2018-07-12T14:55:21.033Z,5.97
2018-07-12T15:00:24.178Z,5.70
2018-07-12T15:05:27.240Z,6.13
2018-07-12T15:10:30.299Z,5.30
2018-07-12T15:15:33.484Z,5.43
2018-07-12T15:20:36.546Z,5.70
2018-07-12T15:25:39.592Z,6.03
2018-07-12T15:30:42.756Z,5.40
2018-07-12T15:35:45.889Z,6.00
2018-07-12T15:40:49.011Z,5.63
2018-07-12T15:45:52.103Z,5.20
2018-07-12T15:50:55.155Z,5.77
2018-07-12T15:55:58.228Z,5.73
2018-07-12T16:01:01.348Z,6.23
2018-07-12T16:06:04.421Z,6.47
2018-07-12T16:11:07.494Z,6.97
2018-07-12T16:16:10.552Z,6.90
2018-07-12T16:21:13.648Z,6.83
2018-07-12T16:26:16.710Z,7.00
2018-07-12T16:31:19.992Z,6.27
2018-07-12T16:36:23.049Z,6.70
2018-07-12T16:41:26.079Z,6.50
2018-07-12T16:46:29.112Z,5.90
2018-07-12T16:51:32.400Z,6.77
2018-07-12T16:56:36.461Z,7.47
2018-07-12T17:01:39.664Z,5.53
2018-07-12T17:06:43.738Z,5.77
2018-07-12T17:11:46.922Z,7.40
2018-07-12T17:16:50.085Z,5.73
2018-07-12T17:21:53.321Z,6.13
2018-07-12T17:26:56.459Z,6.07
2018-07-12T17:31:59.567Z,6.90
2018-07-12T17:37:02.669Z,6.80
2018-07-12T17:42:05.846Z,10.90
2018-07-12T17:47:08.907Z,7.53
2018-07-12T17:52:11.942Z,7.73
2018-07-12T17:57:15.021Z,7.80
2018-07-12T18:02:18.051Z,7.90
2018-07-12T18:07:21.068Z,8.10
2018-07-12T18:12:24.116Z,7.90
2018-07-12T18:17:27.355Z,9.63
2018-07-12T18:22:30.476Z,9.00
2018-07-12T18:27:33.617Z,9.90
2018-07-12T18:32:36.980Z,9.13
2018-07-12T18:43:08.319Z,9.37
2018-07-12T18:48:11.400Z,10.17
2018-07-12T18:53:14.652Z,35.77
2018-07-12T18:58:17.894Z,8.80
2018-07-12T19:03:20.991Z,14.50
2018-07-12T19:08:24.158Z,10.90
2018-07-12T19:13:27.314Z,10.33
2018-07-12T19:18:30.615Z,18.17
2018-07-12T19:23:33.667Z,11.00
2018-07-12T19:28:36.763Z,11.17
2018-07-12T19:33:39.867Z,11.33
2018-07-12T19:38:43.020Z,10.20
2018-07-12T19:43:46.089Z,16.60
2018-07-12T19:48:49.168Z,18.60
2018-07-12T19:53:52.229Z,13.57
2018-07-12T19:58:55.341Z,14.30
2018-07-12T20:03:58.509Z,16.33
2018-07-12T20:09:01.538Z,15.93
2018-07-12T20:14:04.635Z,14.00
2018-07-12T20:19:08.960Z,17.30
2018-07-12T20:24:12.049Z,16.33
2018-07-12T20:29:15.205Z,14.90
2018-07-12T20:34:18.260Z,18.73
2018-07-12T20:39:21.479Z,14.90
2018-07-12T20:44:24.715Z,14.10
2018-07-12T20:49:27.903Z,13.07
2018-07-12T20:54:31.135Z,15.70
2018-07-12T20:59:34.382Z,17.40
2018-07-12T21:04:37.602Z,24.77
2018-07-12T21:09:40.712Z,12.80
2018-07-12T21:14:44.734Z,15.27
2018-07-12T21:19:47.827Z,21.60
2018-07-12T21:24:50.959Z,15.90
2018-07-12T21:29:53.992Z,13.03
2018-07-12T21:34:57.029Z,12.30
2018-07-12T21:40:00.119Z,56.00
2018-07-12T21:45:03.339Z,23.87
2018-07-12T21:50:06.656Z,16.10
2018-07-12T21:55:09.780Z,12.17
2018-07-12T22:00:12.959Z,12.67
2018-07-12T22:05:16.054Z,13.50
2018-07-12T22:10:19.120Z,15.40
2018-07-12T22:15:22.187Z,14.00
2018-07-12T22:20:25.327Z,30.40
2018-07-12T22:25:28.420Z,51.57
2018-07-12T22:30:32.455Z,13.73
2018-07-12T22:35:35.474Z,27.57
2018-07-12T22:40:38.558Z,13.37
2018-07-12T22:45:41.663Z,14.90
2018-07-12T22:50:44.772Z,20.50
2018-07-12T22:55:47.876Z,16.20
2018-07-12T23:00:51.106Z,13.57
2018-07-12T23:05:54.181Z,26.80
2018-07-12T23:10:57.245Z,59.57
2018-07-12T23:16:00.364Z,43.17
2018-07-12T23:21:04.265Z,42.67
2018-07-12T23:26:07.260Z,19.90
2018-07-12T23:31:10.376Z,22.77
2018-07-12T23:36:13.471Z,13.03
2018-07-12T23:41:16.370Z,14.90
2018-07-12T23:46:19.488Z,17.47
2018-07-12T23:51:24.053Z,17.60
2018-07-12T23:56:27.273Z,19.10
